createdAt,value
2023-05-21T00:00:02.334Z,27.96
2023-05-21T00:02:40.111Z,27.57
2023-05-21T00:05:14.336Z,26.88
2023-05-21T00:07:42.373Z,26.94
2023-05-21T00:10:11.791Z,27.02
2023-05-21T00:12:39.433Z,26.97
2023-05-21T00:15:07.853Z,26.37
2023-05-21T00:17:36.962Z,27.55
2023-05-21T00:20:08.769Z,27.42
2023-05-21T00:22:37.010Z,26.24
2023-05-21T00:25:04.966Z,26.92
2023-05-21T00:27:33.971Z,27.04
2023-05-21T00:30:01.644Z,26.73
2023-05-21T00:32:30.567Z,27.39
2023-05-21T00:34:58.296Z,27.30
2023-05-21T00:37:25.942Z,28.07
2023-05-21T00:39:53.633Z,27.91
2023-05-21T00:42:21.389Z,28.02
2023-05-21T00:44:50.453Z,27.19
2023-05-21T00:47:18.555Z,27.69
2023-05-21T00:49:47.013Z,26.49
2023-05-21T00:52:15.053Z,24.43
2023-05-21T00:54:42.650Z,26.00
2023-05-21T00:57:10.325Z,25.55
2023-05-21T00:59:38.012Z,24.84
2023-05-21T01:02:09.439Z,25.17
2023-05-21T01:04:37.142Z,25.84
2023-05-21T01:07:06.293Z,25.83
2023-05-21T01:09:33.964Z,26.55
2023-05-21T01:12:01.675Z,26.88
2023-05-21T01:14:29.305Z,27.35
2023-05-21T01:16:56.939Z,26.38
2023-05-21T01:19:26.211Z,27.11
2023-05-21T01:21:56.233Z,26.67
2023-05-21T01:24:25.432Z,27.58
2023-05-21T01:26:53.039Z,26.63
2023-05-21T01:29:20.860Z,26.92
2023-05-21T01:31:52.310Z,26.11
2023-05-21T01:34:20.630Z,26.75
2023-05-21T01:36:48.973Z,26.54
2023-05-21T01:39:17.121Z,27.36
2023-05-21T01:41:46.361Z,26.24
2023-05-21T01:44:14.007Z,25.12
2023-05-21T01:46:41.690Z,26.51
2023-05-21T01:49:09.395Z,26.32
2023-05-21T01:51:37.102Z,25.83
2023-05-21T01:54:04.863Z,25.24
2023-05-21T01:56:33.962Z,26.02
2023-05-21T01:59:03.262Z,26.32
2023-05-21T02:01:31.214Z,25.61
2023-05-21T02:03:59.017Z,25.36
2023-05-21T02:06:26.730Z,24.72
2023-05-21T02:08:55.528Z,24.39
2023-05-21T02:11:23.374Z,25.04
2023-05-21T02:13:51.026Z,25.08
2023-05-21T02:16:22.427Z,25.29
2023-05-21T02:18:53.631Z,25.81
2023-05-21T02:21:21.634Z,26.41
2023-05-21T02:23:49.346Z,26.05
2023-05-21T02:26:18.008Z,26.50
2023-05-21T02:28:45.655Z,26.59
2023-05-21T02:31:13.497Z,26.51
2023-05-21T02:33:42.983Z,25.05
2023-05-21T02:36:13.047Z,25.50
2023-05-21T02:38:43.800Z,25.71
2023-05-21T02:41:11.999Z,25.92
2023-05-21T02:43:40.235Z,25.40
2023-05-21T02:46:08.327Z,26.30
2023-05-21T02:48:36.581Z,26.28
2023-05-21T02:51:06.996Z,25.72
2023-05-21T02:53:34.763Z,23.12
2023-05-21T02:56:03.228Z,25.16
2023-05-21T02:58:30.883Z,25.13
2023-05-21T03:00:58.667Z,25.87
2023-05-21T03:03:26.611Z,25.06
2023-05-21T03:05:54.317Z,25.16
2023-05-21T03:08:23.319Z,26.16
2023-05-21T03:10:50.963Z,25.84
2023-05-21T03:13:18.696Z,25.50
2023-05-21T03:15:46.555Z,25.93
2023-05-21T03:18:14.895Z,25.87
2023-05-21T03:20:44.305Z,26.59
2023-05-21T03:23:16.250Z,26.52
2023-05-21T03:25:46.924Z,26.52
2023-05-21T03:28:15.524Z,26.43
2023-05-21T03:30:47.295Z,25.59
2023-05-21T03:33:35.200Z,26.32
2023-05-21T03:36:12.114Z,26.55
2023-05-21T03:38:39.764Z,26.70
2023-05-21T03:41:09.395Z,25.95
2023-05-21T03:43:37.732Z,26.01
2023-05-21T03:46:05.564Z,26.32
2023-05-21T03:48:51.848Z,26.00
2023-05-21T03:51:22.977Z,26.88
2023-05-21T03:53:50.853Z,27.32
2023-05-21T03:56:20.163Z,26.71
2023-05-21T03:58:48.561Z,26.64
2023-05-21T04:01:17.716Z,26.96
2023-05-21T04:03:45.848Z,26.52
2023-05-21T04:06:15.546Z,25.87
2023-05-21T04:08:44.483Z,27.28
2023-05-21T04:11:12.164Z,26.59
2023-05-21T04:13:41.198Z,26.12
2023-05-21T04:16:09.847Z,25.70
2023-05-21T04:18:37.569Z,25.84
2023-05-21T04:21:06.092Z,26.65
2023-05-21T04:23:33.773Z,25.45
2023-05-21T04:26:03.050Z,26.03
2023-05-21T04:28:30.801Z,26.52
2023-05-21T04:31:00.005Z,27.31
2023-05-21T04:33:28.616Z,28.51
2023-05-21T04:35:56.266Z,28.00
2023-05-21T04:38:26.111Z,28.39
2023-05-21T04:40:53.969Z,27.26
2023-05-21T04:43:25.569Z,26.90
2023-05-21T04:45:54.965Z,27.61
2023-05-21T04:48:24.912Z,28.43
2023-05-21T04:50:53.518Z,28.08
2023-05-21T04:53:21.862Z,27.22
2023-05-21T04:55:49.645Z,27.16
2023-05-21T04:58:18.359Z,28.80
2023-05-21T05:00:47.365Z,28.25
2023-05-21T05:03:16.375Z,29.19
2023-05-21T05:05:46.414Z,28.28
2023-05-21T05:08:15.964Z,27.15
2023-05-21T05:10:44.136Z,27.97
2023-05-21T05:13:12.582Z,27.81
2023-05-21T05:15:40.312Z,27.54
2023-05-21T05:18:08.521Z,29.37
2023-05-21T05:20:36.393Z,27.90
2023-05-21T05:23:05.537Z,29.50
2023-05-21T05:25:33.564Z,29.24
2023-05-21T05:28:01.468Z,28.64
2023-05-21T05:30:29.230Z,27.98
2023-05-21T05:33:03.504Z,28.00
2023-05-21T05:35:31.670Z,29.44
2023-05-21T05:37:59.333Z,31.02
2023-05-21T05:40:28.610Z,28.91
2023-05-21T05:42:56.254Z,28.98
2023-05-21T05:45:26.593Z,27.85
2023-05-21T05:47:54.495Z,28.08
2023-05-21T05:50:22.370Z,27.19
2023-05-21T05:52:51.263Z,28.69
2023-05-21T05:55:19.017Z,30.04
2023-05-21T05:57:48.063Z,28.57
2023-05-21T06:00:18.442Z,29.67
2023-05-21T06:02:49.265Z,29.30
2023-05-21T06:05:17.240Z,28.74
2023-05-21T06:07:45.033Z,28.79
2023-05-21T06:10:12.732Z,27.44
2023-05-21T06:12:40.465Z,28.94
2023-05-21T06:15:10.359Z,29.10
2023-05-21T06:17:38.190Z,29.60
2023-05-21T06:20:06.553Z,29.01
2023-05-21T06:22:34.292Z,28.87
2023-05-21T06:25:01.985Z,28.28
2023-05-21T06:27:30.582Z,29.54
2023-05-21T06:29:59.399Z,28.63
2023-05-21T06:32:28.506Z,29.70
2023-05-21T06:34:56.226Z,27.81
2023-05-21T06:37:25.949Z,28.73
2023-05-21T06:39:54.366Z,28.72
2023-05-21T06:42:22.737Z,28.51
2023-05-21T06:45:10.370Z,29.38
2023-05-21T06:47:41.297Z,30.75
2023-05-21T06:50:09.461Z,30.42
2023-05-21T06:52:37.258Z,30.77
2023-05-21T06:55:05.348Z,29.88
2023-05-21T06:57:52.956Z,29.53
2023-05-21T07:00:20.688Z,30.20
2023-05-21T07:02:50.697Z,30.15
2023-05-21T07:05:18.527Z,30.91
2023-05-21T07:07:46.252Z,30.88
2023-05-21T07:10:14.266Z,31.07
2023-05-21T07:12:41.986Z,31.81
2023-05-21T07:15:10.517Z,32.21
2023-05-21T07:17:38.539Z,30.52
2023-05-21T07:20:09.828Z,30.57
2023-05-21T07:22:39.825Z,29.03
2023-05-21T07:25:09.548Z,32.06
2023-05-21T07:27:37.224Z,31.72
2023-05-21T07:30:05.242Z,31.06
2023-05-21T07:32:33.405Z,29.64
2023-05-21T07:35:02.913Z,29.99
2023-05-21T07:37:32.710Z,31.36
2023-05-21T07:40:00.504Z,32.34
2023-05-21T07:42:28.507Z,32.80
2023-05-21T07:44:57.838Z,32.86
2023-05-21T07:47:27.249Z,30.98
2023-05-21T07:49:55.244Z,29.90
2023-05-21T07:52:23.055Z,32.19
2023-05-21T07:54:52.319Z,32.95
2023-05-21T07:57:23.289Z,33.35
2023-05-21T08:00:01.541Z,32.26
2023-05-21T08:02:32.223Z,31.26
2023-05-21T08:05:01.548Z,31.11
2023-05-21T08:07:29.342Z,31.41
2023-05-21T08:09:58.479Z,33.37
2023-05-21T08:12:26.477Z,33.74
2023-05-21T08:14:54.320Z,32.38
2023-05-21T08:17:22.679Z,32.45
2023-05-21T08:19:50.642Z,33.24
2023-05-21T08:22:18.487Z,32.37
2023-05-21T08:24:46.922Z,31.66
2023-05-21T08:27:16.436Z,31.75
2023-05-21T08:29:44.324Z,32.17
2023-05-21T08:32:12.097Z,31.59
2023-05-21T08:34:39.966Z,29.92
2023-05-21T08:37:27.917Z,33.74
2023-05-21T08:40:31.160Z,33.81
2023-05-21T08:43:00.258Z,33.29
2023-05-21T08:45:40.567Z,34.32
2023-05-21T08:48:08.701Z,33.51
2023-05-21T08:50:37.382Z,34.06
2023-05-21T08:53:19.888Z,33.40
2023-05-21T08:55:57.174Z,33.93
2023-05-21T08:58:30.185Z,34.21
2023-05-21T09:00:58.955Z,34.12
2023-05-21T09:03:29.226Z,33.43
2023-05-21T09:05:56.983Z,33.13
2023-05-21T09:08:28.486Z,35.42
2023-05-21T09:11:16.221Z,35.04
2023-05-21T09:13:51.481Z,35.47
2023-05-21T09:16:25.867Z,35.84
2023-05-21T09:18:54.174Z,34.36
2023-05-21T09:21:28.674Z,35.00
2023-05-21T09:24:00.681Z,32.96
2023-05-21T09:26:28.829Z,32.85
2023-05-21T09:29:01.791Z,33.61
2023-05-21T09:31:29.692Z,34.27
2023-05-21T09:34:01.929Z,35.24
2023-05-21T09:36:34.642Z,36.70
2023-05-21T09:39:02.513Z,36.83
2023-05-21T09:41:35.935Z,35.97
2023-05-21T09:44:06.548Z,35.19
2023-05-21T09:46:39.357Z,35.63
2023-05-21T09:49:24.417Z,35.25
2023-05-21T09:51:54.437Z,35.65
2023-05-21T09:54:22.274Z,36.90
2023-05-21T09:56:49.915Z,35.75
2023-05-21T09:59:18.906Z,34.68
2023-05-21T10:01:46.767Z,35.41
2023-05-21T10:04:14.533Z,36.50
2023-05-21T10:06:43.329Z,35.16
2023-05-21T10:09:11.652Z,36.43
2023-05-21T10:11:39.583Z,33.87
2023-05-21T10:14:07.505Z,36.43
2023-05-21T10:16:37.155Z,36.29
2023-05-21T10:19:05.857Z,36.42
2023-05-21T10:21:34.797Z,35.17
2023-05-21T10:24:02.444Z,36.60
2023-05-21T10:26:30.124Z,36.24
2023-05-21T10:29:00.007Z,36.65
2023-05-21T10:31:27.833Z,37.18
2023-05-21T10:33:57.050Z,35.97
2023-05-21T10:36:25.092Z,36.11
2023-05-21T10:38:52.782Z,37.08
2023-05-21T10:41:20.953Z,38.28
2023-05-21T10:43:49.682Z,38.17
2023-05-21T10:46:32.215Z,36.07
2023-05-21T10:49:04.243Z,35.93
2023-05-21T10:51:36.080Z,36.67
2023-05-21T10:54:22.184Z,37.09
2023-05-21T10:56:50.616Z,36.80
2023-05-21T10:59:22.213Z,38.10
2023-05-21T11:01:50.386Z,37.37
2023-05-21T11:04:21.788Z,37.03
2023-05-21T11:06:49.636Z,36.52
2023-05-21T11:09:17.446Z,37.32
2023-05-21T11:11:46.216Z,36.13
2023-05-21T11:14:35.406Z,36.38
2023-05-21T11:17:03.813Z,37.29
2023-05-21T11:19:39.372Z,36.47
2023-05-21T11:22:10.707Z,37.07
2023-05-21T11:24:38.750Z,37.32
2023-05-21T11:27:07.104Z,35.72
2023-05-21T11:29:41.926Z,37.54
2023-05-21T11:32:10.358Z,37.82
2023-05-21T11:34:40.410Z,37.21
2023-05-21T11:37:40.718Z,38.20
2023-05-21T11:40:17.704Z,39.25
2023-05-21T11:42:46.201Z,40.02
2023-05-21T11:45:13.845Z,41.51
2023-05-21T11:47:41.593Z,41.03
2023-05-21T11:50:13.520Z,42.18
2023-05-21T11:52:41.303Z,41.31
2023-05-21T11:55:09.460Z,41.99
2023-05-21T11:57:37.809Z,41.31
2023-05-21T12:00:13.756Z,42.48
2023-05-21T12:02:45.151Z,42.25
2023-05-21T12:05:14.287Z,41.82
2023-05-21T12:07:42.251Z,42.87
2023-05-21T12:10:10.267Z,42.57
2023-05-21T12:12:53.268Z,42.07
2023-05-21T12:15:22.779Z,41.91
2023-05-21T12:17:51.028Z,44.62
2023-05-21T12:20:20.210Z,41.48
2023-05-21T12:22:49.422Z,44.02
2023-05-21T12:25:19.811Z,41.11
2023-05-21T12:27:47.640Z,41.17
2023-05-21T12:30:15.295Z,41.27
2023-05-21T12:32:44.377Z,41.48
2023-05-21T12:35:23.247Z,40.67
2023-05-21T12:37:51.742Z,43.59
2023-05-21T12:40:22.343Z,41.83
2023-05-21T12:42:50.405Z,43.47
2023-05-21T12:45:18.657Z,41.52
2023-05-21T12:47:48.870Z,41.76
2023-05-21T12:50:16.730Z,41.84
2023-05-21T12:52:45.744Z,40.62
2023-05-21T12:55:14.013Z,43.97
2023-05-21T12:57:43.784Z,42.34
2023-05-21T13:00:11.969Z,42.71
2023-05-21T13:02:40.232Z,39.38
2023-05-21T13:05:08.776Z,42.49
2023-05-21T13:07:37.681Z,42.73
2023-05-21T13:10:07.523Z,42.29
2023-05-21T13:12:35.423Z,44.29
2023-05-21T13:15:03.604Z,41.89
2023-05-21T13:17:31.567Z,39.53
2023-05-21T13:20:06.873Z,40.77
2023-05-21T13:22:35.431Z,40.63
2023-05-21T13:25:03.154Z,40.29
2023-05-21T13:27:32.179Z,43.20
2023-05-21T13:29:59.838Z,41.23
2023-05-21T13:32:27.560Z,41.55
2023-05-21T13:34:55.330Z,43.46
2023-05-21T13:37:22.985Z,45.77
2023-05-21T13:39:50.594Z,42.62
2023-05-21T13:42:18.309Z,40.17
2023-05-21T13:44:47.319Z,40.92
2023-05-21T13:47:14.975Z,42.63
2023-05-21T13:49:42.645Z,43.12
2023-05-21T13:52:10.501Z,41.59
2023-05-21T13:54:38.111Z,43.81
2023-05-21T13:57:05.837Z,42.12
2023-05-21T13:59:33.914Z,41.51
2023-05-21T14:02:03.093Z,40.67
2023-05-21T14:04:30.748Z,42.35
2023-05-21T14:06:58.468Z,43.45
2023-05-21T14:09:27.232Z,43.29
2023-05-21T14:11:55.164Z,42.92
2023-05-21T14:14:22.816Z,43.03
2023-05-21T14:16:50.728Z,41.65
2023-05-21T14:19:19.932Z,41.56
2023-05-21T14:21:47.745Z,42.10
2023-05-21T14:24:15.423Z,41.90
2023-05-21T14:26:43.116Z,40.05
2023-05-21T14:29:10.836Z,40.09
2023-05-21T14:31:38.814Z,40.26
2023-05-21T14:34:07.018Z,40.09
2023-05-21T14:36:36.391Z,39.96
2023-05-21T14:39:04.312Z,39.78
2023-05-21T14:41:32.091Z,39.88
2023-05-21T14:43:59.811Z,40.49
2023-05-21T14:46:27.660Z,41.76
2023-05-21T14:48:59.182Z,39.15
2023-05-21T14:51:27.062Z,40.76
2023-05-21T14:53:57.569Z,39.06
2023-05-21T14:56:27.219Z,39.49
2023-05-21T14:58:54.957Z,40.89
2023-05-21T15:01:22.714Z,41.74
2023-05-21T15:03:50.722Z,40.63
2023-05-21T15:06:18.422Z,40.52
2023-05-21T15:08:46.082Z,40.35
2023-05-21T15:11:15.116Z,41.10
2023-05-21T15:13:42.823Z,42.86
2023-05-21T15:16:10.495Z,41.78
2023-05-21T15:18:38.132Z,42.65
2023-05-21T15:21:06.060Z,41.40
2023-05-21T15:23:33.780Z,41.23
2023-05-21T15:26:01.536Z,40.93
2023-05-21T15:28:30.592Z,39.35
2023-05-21T15:30:58.247Z,39.42
2023-05-21T15:33:25.880Z,38.77
2023-05-21T15:35:53.578Z,39.52
2023-05-21T15:38:21.238Z,40.56
2023-05-21T15:40:48.896Z,39.12
2023-05-21T15:43:16.561Z,40.56
2023-05-21T15:45:45.624Z,38.72
2023-05-21T15:48:13.461Z,38.16
2023-05-21T15:50:41.205Z,39.33
2023-05-21T15:53:08.900Z,41.00
2023-05-21T15:55:36.756Z,38.45
2023-05-21T15:58:04.704Z,39.76
2023-05-21T16:00:32.429Z,38.74
2023-05-21T16:03:01.503Z,37.56
2023-05-21T16:05:29.300Z,38.23
2023-05-21T16:07:56.919Z,39.45
2023-05-21T16:10:24.854Z,38.67
2023-05-21T16:12:52.505Z,39.96
2023-05-21T16:15:20.191Z,39.25
2023-05-21T16:17:47.927Z,37.59
2023-05-21T16:20:18.763Z,38.55
2023-05-21T16:22:46.499Z,38.51
2023-05-21T16:25:14.101Z,40.18
2023-05-21T16:27:41.715Z,38.43
2023-05-21T16:30:09.804Z,38.95
2023-05-21T16:32:39.402Z,39.44
2023-05-21T16:35:07.511Z,38.99
2023-05-21T16:37:36.629Z,38.57
2023-05-21T16:40:04.588Z,38.64
2023-05-21T16:42:32.352Z,38.15
2023-05-21T16:44:59.986Z,37.73
2023-05-21T16:47:27.643Z,38.07
2023-05-21T16:49:55.815Z,38.26
2023-05-21T16:52:23.888Z,38.25
2023-05-21T16:54:52.962Z,36.92
2023-05-21T16:57:20.652Z,38.04
2023-05-21T16:59:48.335Z,37.62
2023-05-21T17:02:16.064Z,39.87
2023-05-21T17:04:43.736Z,37.15
2023-05-21T17:07:11.399Z,38.98
2023-05-21T17:09:39.091Z,37.72
2023-05-21T17:12:08.604Z,38.10
2023-05-21T17:14:37.232Z,37.86
2023-05-21T17:17:06.896Z,37.46
2023-05-21T17:19:34.678Z,37.39
2023-05-21T17:22:02.422Z,36.81
2023-05-21T17:24:30.066Z,36.64
2023-05-21T17:26:57.758Z,36.78
2023-05-21T17:29:26.900Z,35.56
2023-05-21T17:31:54.648Z,33.67
2023-05-21T17:34:24.551Z,34.14
2023-05-21T17:36:52.341Z,34.88
2023-05-21T17:39:20.335Z,34.03
2023-05-21T17:41:48.086Z,34.22
2023-05-21T17:44:16.876Z,35.25
2023-05-21T17:46:45.984Z,34.18
2023-05-21T17:49:13.746Z,34.06
2023-05-21T17:51:41.389Z,34.77
2023-05-21T17:54:09.083Z,35.43
2023-05-21T17:56:39.082Z,35.10
2023-05-21T17:59:07.445Z,33.47
2023-05-21T18:01:35.239Z,34.86
2023-05-21T18:04:04.712Z,32.97
2023-05-21T18:06:32.732Z,34.44
2023-05-21T18:09:00.475Z,35.99
2023-05-21T18:11:28.221Z,35.13
2023-05-21T18:13:55.861Z,34.38
2023-05-21T18:16:23.692Z,32.99
2023-05-21T18:18:51.369Z,33.54
2023-05-21T18:21:20.412Z,34.15
2023-05-21T18:23:48.092Z,33.99
2023-05-21T18:26:15.955Z,33.18
2023-05-21T18:28:43.563Z,33.80
2023-05-21T18:31:11.210Z,33.94
2023-05-21T18:33:39.322Z,33.42
2023-05-21T18:36:07.318Z,34.44
2023-05-21T18:38:36.352Z,33.09
2023-05-21T18:41:05.055Z,33.57
2023-05-21T18:43:32.709Z,34.73
2023-05-21T18:46:00.616Z,34.29
2023-05-21T18:48:28.267Z,34.37
2023-05-21T18:50:56.712Z,34.63
2023-05-21T18:53:24.362Z,33.89
2023-05-21T18:55:53.424Z,34.10
2023-05-21T18:58:21.083Z,33.71
2023-05-21T19:00:48.770Z,33.71
2023-05-21T19:03:16.445Z,34.42
2023-05-21T19:05:44.145Z,33.00
2023-05-21T19:08:11.829Z,34.50
2023-05-21T19:10:39.638Z,33.28
2023-05-21T19:13:09.033Z,33.01
2023-05-21T19:15:36.678Z,34.16
2023-05-21T19:18:04.530Z,33.13
2023-05-21T19:20:32.188Z,33.78
2023-05-21T19:22:59.840Z,34.88
2023-05-21T19:25:27.488Z,34.25
2023-05-21T19:27:55.148Z,33.55
2023-05-21T19:30:24.296Z,33.79
2023-05-21T19:32:52.091Z,33.87
2023-05-21T19:35:19.799Z,34.90
2023-05-21T19:37:47.489Z,35.13
2023-05-21T19:40:17.535Z,33.72
2023-05-21T19:42:45.302Z,34.47
2023-05-21T19:45:13.352Z,33.43
2023-05-21T19:47:42.427Z,33.61
2023-05-21T19:50:11.274Z,33.96
2023-05-21T19:52:39.097Z,32.92
2023-05-21T19:55:08.726Z,34.17
2023-05-21T19:57:37.028Z,34.49
2023-05-21T20:00:05.518Z,33.33
2023-05-21T20:02:40.645Z,34.38
2023-05-21T20:05:10.481Z,32.93
2023-05-21T20:07:38.163Z,33.88
2023-05-21T20:10:06.269Z,32.40
2023-05-21T20:12:33.952Z,32.54
2023-05-21T20:15:01.737Z,34.12
2023-05-21T20:17:30.520Z,32.71
2023-05-21T20:19:59.316Z,32.33
2023-05-21T20:22:28.366Z,33.39
2023-05-21T20:24:56.168Z,33.46
2023-05-21T20:27:23.833Z,33.44
2023-05-21T20:29:51.558Z,32.56
2023-05-21T20:32:19.202Z,33.77
2023-05-21T20:35:01.639Z,34.79
2023-05-21T20:37:33.868Z,33.37
2023-05-21T20:40:01.562Z,33.59
2023-05-21T20:42:34.791Z,33.70
2023-05-21T20:45:03.308Z,33.43
2023-05-21T20:47:31.062Z,32.40
2023-05-21T20:49:59.809Z,32.63
2023-05-21T20:52:27.530Z,32.72
2023-05-21T20:54:59.556Z,33.79
2023-05-21T20:57:27.469Z,31.47
2023-05-21T20:59:55.121Z,32.76
2023-05-21T21:02:22.909Z,33.78
2023-05-21T21:04:50.980Z,32.88
2023-05-21T21:07:19.088Z,33.11
2023-05-21T21:09:46.909Z,32.83
2023-05-21T21:12:26.137Z,33.27
2023-05-21T21:14:54.346Z,32.47
2023-05-21T21:17:22.175Z,32.54
2023-05-21T21:19:49.894Z,32.00
2023-05-21T21:22:18.139Z,32.96
2023-05-21T21:24:45.949Z,32.43
2023-05-21T21:27:13.642Z,32.97
2023-05-21T21:29:42.697Z,32.13
2023-05-21T21:32:10.433Z,33.40
2023-05-21T21:34:38.080Z,32.93
2023-05-21T21:37:05.865Z,32.82
2023-05-21T21:39:33.489Z,33.12
2023-05-21T21:42:01.156Z,30.97
2023-05-21T21:44:28.762Z,32.15
2023-05-21T21:46:57.746Z,31.69
2023-05-21T21:49:25.638Z,31.83
2023-05-21T21:51:53.489Z,32.63
2023-05-21T21:54:21.202Z,32.62
2023-05-21T21:56:48.843Z,33.48
2023-05-21T21:59:16.848Z,32.79
2023-05-21T22:01:44.693Z,32.08
2023-05-21T22:04:13.797Z,31.53
2023-05-21T22:06:41.465Z,31.86
2023-05-21T22:09:09.248Z,32.08
2023-05-21T22:11:37.192Z,30.95
2023-05-21T22:14:05.928Z,32.17
2023-05-21T22:16:34.223Z,30.04
2023-05-21T22:19:02.293Z,30.86
2023-05-21T22:21:32.869Z,31.44
2023-05-21T22:24:00.663Z,30.95
2023-05-21T22:26:28.328Z,29.57
2023-05-21T22:28:55.993Z,31.30
2023-05-21T22:31:23.737Z,30.50
2023-05-21T22:33:51.479Z,31.18
2023-05-21T22:36:19.151Z,32.43
2023-05-21T22:38:48.142Z,32.68
2023-05-21T22:41:15.786Z,31.43
2023-05-21T22:43:43.683Z,31.67
2023-05-21T22:46:11.367Z,32.53
2023-05-21T22:48:41.835Z,31.29
2023-05-21T22:51:11.381Z,32.32
2023-05-21T22:53:39.033Z,32.41
2023-05-21T22:56:08.241Z,30.97
2023-05-21T22:58:36.688Z,31.31
2023-05-21T23:01:04.732Z,30.48
2023-05-21T23:03:32.357Z,30.01
2023-05-21T23:06:00.030Z,30.86
2023-05-21T23:08:27.797Z,30.60
2023-05-21T23:10:55.415Z,30.13
2023-05-21T23:13:24.441Z,29.73
2023-05-21T23:15:52.086Z,30.12
2023-05-21T23:18:19.797Z,29.46
2023-05-21T23:20:47.497Z,29.36
2023-05-21T23:23:15.140Z,30.17
2023-05-21T23:25:42.774Z,29.04
2023-05-21T23:28:10.744Z,28.83
2023-05-21T23:30:40.174Z,29.62
2023-05-21T23:33:08.034Z,30.04
2023-05-21T23:35:35.765Z,29.35
2023-05-21T23:38:03.596Z,30.43
2023-05-21T23:40:31.256Z,30.66
2023-05-21T23:42:58.869Z,30.14
2023-05-21T23:45:26.491Z,30.33
2023-05-21T23:47:55.578Z,29.30
2023-05-21T23:50:23.862Z,27.07
2023-05-21T23:52:51.547Z,28.70
2023-05-21T23:55:19.209Z,28.72
2023-05-21T23:57:46.873Z,29.27
